Dallas, Texas
Traffic Map
Current Weather Conditions
Dallas, Texas
Overcast
Overcast
48°
Feels Like: 48°
Wind Chill: 48° Ceiling: 2000
Heat Index: 48° Visibility: 8mi
Dew Point: 42° Wind: 0mph
Humidity: 80% Direction: ° ()
Pressure: 30.18in Gusts: 0mph
Raw Report DataKDAL 202253Z 00000KT 8SM OVC020 09/06 A3018 RMK AO2 SLP221 T00890056
Traffic Incident Summary
Active as of:
Severity:
Category:
InformationThere was an issue retrieving the traffic information for this location. Please try a different location or try again shortly.
Advertisements
Track Severe Weather on mobile